Time;durP1;ratioP1;P1;durP2;ratioP2;P2;SDS_P1;SDS_P2;PMS_P1;PMS_P2;Temp;Humidity;BMP_temperature;BMP_pressure;BME280_temperature;BME280_humidity;BME280_pressure;Samples;Min_cycle;Max_cycle;Signal;HPM_P1;HPM_P2
2021/12/18 00:02:29;;;;;;;0.00;0.00;;;;;;;;;;5010265;28;20239;-76
2021/12/18 00:05:03;;;;;;;0.00;0.00;;;;;;;;;;5012756;28;20307;-76
2021/12/18 00:07:40;;;;;;;0.00;0.00;;;;;;;;;;5012022;28;20244;-77
2021/12/18 00:10:10;;;;;;;0.00;0.00;;;;;;;;;;5012281;28;20204;-76
2021/12/18 00:12:47;;;;;;;0.00;0.00;;;;;;;;;;5005798;28;20208;-76
2021/12/18 00:15:16;;;;;;;0.00;0.00;;;;;;;;;;5012524;28;20235;-76
2021/12/18 00:17:49;;;;;;;0.00;0.00;;;;;;;;;;5009753;28;20231;-76
2021/12/18 00:20:21;;;;;;;0.00;0.00;;;;;;;;;;5015302;28;20208;-76
2021/12/18 00:22:52;;;;;;;0.00;0.00;;;;;;;;;;5015231;28;20258;-75
2021/12/18 00:25:22;;;;;;;0.00;0.00;;;;;;;;;;5003155;28;20233;-75
2021/12/18 00:27:54;;;;;;;0.00;0.00;;;;;;;;;;5012356;28;20660;-76
2021/12/18 00:30:25;;;;;;;0.00;0.00;;;;;;;;;;5016095;28;20216;-76
2021/12/18 00:32:57;;;;;;;0.00;0.00;;;;;;;;;;5011902;28;20553;-75
2021/12/18 00:35:27;;;;;;;0.00;0.00;;;;;;;;;;5016425;28;20258;-76
2021/12/18 00:38:00;;;;;;;0.00;0.00;;;;;;;;;;5015113;28;20598;-76
2021/12/18 00:40:43;;;;;;;0.00;0.00;;;;;;;;;;5016188;28;20679;-75
2021/12/18 00:43:26;;;;;;;0.00;0.00;;;;;;;;;;5012252;28;20259;-76
2021/12/18 00:45:56;;;;;;;0.00;0.00;;;;;;;;;;5016414;28;20220;-76
2021/12/18 00:48:26;;;;;;;0.00;0.00;;;;;;;;;;5013324;28;20221;-75
2021/12/18 00:50:57;;;;;;;0.00;0.00;;;;;;;;;;5014288;28;20205;-75
2021/12/18 00:53:35;;;;;;;0.00;0.00;;;;;;;;;;5015422;28;20287;-76
2021/12/18 00:56:05;;;;;;;0.00;0.00;;;;;;;;;;4998510;28;20204;-75
2021/12/18 00:58:36;;;;;;;0.00;0.00;;;;;;;;;;5014537;28;20208;-75
2021/12/18 01:01:09;;;;;;;0.00;0.00;;;;;;;;;;5014659;28;20200;-76
2021/12/18 01:03:42;;;;;;;0.00;0.00;;;;;;;;;;4994126;28;20262;-75
2021/12/18 01:06:17;;;;;;;0.00;0.00;;;;;;;;;;5003442;28;20714;-76
2021/12/18 01:08:52;;;;;;;0.00;0.00;;;;;;;;;;5013990;28;20221;-75
2021/12/18 01:11:39;;;;;;;0.00;0.00;;;;;;;;;;5014283;28;20561;-76
2021/12/18 01:22:48;;;;;;;0.00;0.00;;;;;;;;;;5014002;28;20291;-76
2021/12/18 01:25:24;;;;;;;0.00;0.00;;;;;;;;;;5015493;28;20319;-76
2021/12/18 01:28:06;;;;;;;0.00;0.00;;;;;;;;;;5013517;28;20220;-75
2021/12/18 01:30:37;;;;;;;0.00;0.00;;;;;;;;;;5013573;28;20197;-75
2021/12/18 01:33:07;;;;;;;0.00;0.00;;;;;;;;;;4664427;28;10000137;-75
2021/12/18 01:35:36;;;;;;;0.00;0.00;;;;;;;;;;5012100;28;20196;-75
2021/12/18 01:38:06;;;;;;;0.00;0.00;;;;;;;;;;5011368;28;20239;-75
2021/12/18 01:40:37;;;;;;;0.00;0.00;;;;;;;;;;5014926;28;20276;-76
2021/12/18 01:52:01;;;;;;;0.00;0.00;;;;;;;;;;5014780;28;20196;-75
2021/12/18 01:54:38;;;;;;;0.00;0.00;;;;;;;;;;5001886;28;20213;-75
2021/12/18 01:57:12;;;;;;;0.00;0.00;;;;;;;;;;5012048;28;20224;-75
2021/12/18 01:59:44;;;;;;;0.00;0.00;;;;;;;;;;5014399;28;20208;-75
2021/12/18 02:02:15;;;;;;;0.00;0.00;;;;;;;;;;5013898;28;20254;-76
2021/12/18 02:04:50;;;;;;;0.00;0.00;;;;;;;;;;5013572;28;20223;-75
2021/12/18 02:07:22;;;;;;;0.00;0.00;;;;;;;;;;5013024;28;20275;-75
2021/12/18 02:10:02;;;;;;;0.00;0.00;;;;;;;;;;5014402;28;20204;-76
2021/12/18 02:12:45;;;;;;;0.00;0.00;;;;;;;;;;5013844;28;20204;-76
2021/12/18 02:21:06;;;;;;;0.00;0.00;;;;;;;;;;5014192;28;20255;-76
2021/12/18 02:23:38;;;;;;;0.00;0.00;;;;;;;;;;5012884;28;20208;-76
2021/12/18 02:26:09;;;;;;;0.00;0.00;;;;;;;;;;4993784;28;20312;-75
2021/12/18 02:28:42;;;;;;;0.00;0.00;;;;;;;;;;5009537;28;20204;-75
2021/12/18 02:31:15;;;;;;;0.00;0.00;;;;;;;;;;5013821;28;20219;-76
2021/12/18 02:33:47;;;;;;;0.00;0.00;;;;;;;;;;5011368;28;20208;-75
2021/12/18 02:36:24;;;;;;;0.00;0.00;;;;;;;;;;5013993;28;20601;-76
2021/12/18 02:39:19;;;;;;;0.00;0.00;;;;;;;;;;5012800;28;20207;-77
2021/12/18 02:42:08;;;;;;;0.00;0.00;;;;;;;;;;4995140;28;20612;-78
2021/12/18 02:44:39;;;;;;;0.00;0.00;;;;;;;;;;5013320;28;20204;-77
2021/12/18 02:47:09;;;;;;;0.00;0.00;;;;;;;;;;5013636;28;20227;-78
2021/12/18 02:49:43;;;;;;;0.00;0.00;;;;;;;;;;5013357;28;20227;-77
2021/12/18 02:52:15;;;;;;;0.00;0.00;;;;;;;;;;5011804;28;20236;-77
2021/12/18 02:54:47;;;;;;;0.00;0.00;;;;;;;;;;5005306;28;20207;-77
2021/12/18 02:57:18;;;;;;;0.00;0.00;;;;;;;;;;4993403;28;20233;-77
2021/12/18 02:59:50;;;;;;;0.00;0.00;;;;;;;;;;4997625;28;20581;-77
2021/12/18 03:02:24;;;;;;;0.00;0.00;;;;;;;;;;5012856;28;20200;-77
2021/12/18 03:04:58;;;;;;;0.00;0.00;;;;;;;;;;5013317;28;20208;-77
2021/12/18 03:07:30;;;;;;;0.00;0.00;;;;;;;;;;5013602;28;20323;-78
2021/12/18 03:24:21;;;;;;;0.00;0.00;;;;;;;;;;5012422;28;20266;-77
2021/12/18 03:26:52;;;;;;;0.00;0.00;;;;;;;;;;5011644;28;20228;-77
2021/12/18 03:29:23;;;;;;;0.00;0.00;;;;;;;;;;5012952;28;20208;-77
2021/12/18 03:31:53;;;;;;;0.00;0.00;;;;;;;;;;4996004;28;20263;-77
2021/12/18 03:34:24;;;;;;;0.00;0.00;;;;;;;;;;5012810;28;20212;-78
2021/12/18 03:36:54;;;;;;;0.00;0.00;;;;;;;;;;5012677;28;20765;-77
2021/12/18 03:39:25;;;;;;;0.00;0.00;;;;;;;;;;5011888;28;20250;-78
2021/12/18 03:41:56;;;;;;;0.00;0.00;;;;;;;;;;5012610;28;20267;-77
2021/12/18 03:44:28;;;;;;;0.00;0.00;;;;;;;;;;4994572;28;20211;-77
2021/12/18 03:46:57;;;;;;;0.00;0.00;;;;;;;;;;5012101;28;20603;-77
2021/12/18 03:49:27;;;;;;;0.00;0.00;;;;;;;;;;5011303;28;20288;-77
2021/12/18 03:51:57;;;;;;;0.00;0.00;;;;;;;;;;5012788;28;20291;-78
2021/12/18 03:54:29;;;;;;;0.00;0.00;;;;;;;;;;5005189;28;20209;-77
2021/12/18 03:57:08;;;;;;;0.00;0.00;;;;;;;;;;4992628;28;20221;-77
2021/12/18 03:59:38;;;;;;;0.00;0.00;;;;;;;;;;5011894;28;20608;-78
2021/12/18 04:02:07;;;;;;;0.00;0.00;;;;;;;;;;5011547;28;20247;-77
2021/12/18 04:04:38;;;;;;;0.00;0.00;;;;;;;;;;5012405;28;20204;-76
2021/12/18 04:07:11;;;;;;;0.00;0.00;;;;;;;;;;5012500;28;20665;-77
2021/12/18 04:09:47;;;;;;;0.00;0.00;;;;;;;;;;5012171;28;20250;-76
2021/12/18 04:12:17;;;;;;;0.00;0.00;;;;;;;;;;5012587;28;20271;-76
2021/12/18 04:14:47;;;;;;;0.00;0.00;;;;;;;;;;4992439;28;20664;-77
2021/12/18 04:17:17;;;;;;;0.00;0.00;;;;;;;;;;4998731;28;20291;-77
2021/12/18 04:19:51;;;;;;;0.00;0.00;;;;;;;;;;4995526;28;20283;-77
2021/12/18 04:22:21;;;;;;;0.00;0.00;;;;;;;;;;5006746;28;20204;-77
2021/12/18 04:24:54;;;;;;;0.00;0.00;;;;;;;;;;4992730;28;20209;-76
2021/12/18 04:27:24;;;;;;;0.00;0.00;;;;;;;;;;4993450;28;20632;-77
2021/12/18 04:29:54;;;;;;;0.00;0.00;;;;;;;;;;5000044;28;20201;-78
2021/12/18 04:32:26;;;;;;;0.00;0.00;;;;;;;;;;5012198;28;20212;-77
2021/12/18 04:35:00;;;;;;;0.00;0.00;;;;;;;;;;5012328;28;20204;-78
2021/12/18 04:37:34;;;;;;;0.00;0.00;;;;;;;;;;5012065;28;20213;-78
2021/12/18 04:40:11;;;;;;;0.00;0.00;;;;;;;;;;5011420;28;20246;-76
2021/12/18 04:42:41;;;;;;;0.00;0.00;;;;;;;;;;5010373;28;20660;-77
2021/12/18 04:45:11;;;;;;;0.00;0.00;;;;;;;;;;5012594;28;20211;-77
2021/12/18 04:47:41;;;;;;;0.00;0.00;;;;;;;;;;5011241;28;20228;-77
2021/12/18 04:50:12;;;;;;;0.00;0.00;;;;;;;;;;5012205;28;20683;-78
2021/12/18 04:52:42;;;;;;;0.00;0.00;;;;;;;;;;5010801;28;20217;-77
2021/12/18 04:55:13;;;;;;;0.00;0.00;;;;;;;;;;5011786;28;20204;-77
2021/12/18 04:57:43;;;;;;;0.00;0.00;;;;;;;;;;5010316;28;20267;-77
2021/12/18 05:00:14;;;;;;;0.00;0.00;;;;;;;;;;5011938;28;20201;-77
2021/12/18 05:02:46;;;;;;;0.00;0.00;;;;;;;;;;5006790;28;20201;-77
2021/12/18 05:05:17;;;;;;;0.00;0.00;;;;;;;;;;4995573;28;20220;-78
2021/12/18 05:07:47;;;;;;;0.00;0.00;;;;;;;;;;5014995;28;20232;-78
2021/12/18 05:10:19;;;;;;;0.00;0.00;;;;;;;;;;5014829;28;20201;-77
2021/12/18 05:12:50;;;;;;;0.00;0.00;;;;;;;;;;5015017;28;20208;-77
2021/12/18 05:15:20;;;;;;;0.00;0.00;;;;;;;;;;5015687;28;20299;-77
2021/12/18 05:17:50;;;;;;;0.00;0.00;;;;;;;;;;5015056;28;20224;-77
2021/12/18 05:20:20;;;;;;;0.00;0.00;;;;;;;;;;5014925;28;20201;-77
2021/12/18 05:22:50;;;;;;;0.00;0.00;;;;;;;;;;5014319;28;20743;-78
2021/12/18 05:25:25;;;;;;;0.00;0.00;;;;;;;;;;4984528;28;20244;-77
2021/12/18 05:27:55;;;;;;;0.00;0.00;;;;;;;;;;5001777;28;20235;-77
2021/12/18 05:30:25;;;;;;;0.00;0.00;;;;;;;;;;4997967;28;20212;-78
2021/12/18 05:32:56;;;;;;;0.00;0.00;;;;;;;;;;5015801;28;20258;-76
2021/12/18 05:35:29;;;;;;;0.00;0.00;;;;;;;;;;5017084;28;20201;-78
2021/12/18 05:38:05;;;;;;;0.00;0.00;;;;;;;;;;5014269;28;20251;-78
2021/12/18 05:40:39;;;;;;;0.00;0.00;;;;;;;;;;5012203;28;20283;-78
2021/12/18 05:43:09;;;;;;;0.00;0.00;;;;;;;;;;5013655;28;20213;-78
2021/12/18 05:45:40;;;;;;;0.00;0.00;;;;;;;;;;5015276;28;20660;-78
2021/12/18 05:48:09;;;;;;;0.00;0.00;;;;;;;;;;5013611;28;20256;-77
2021/12/18 05:50:40;;;;;;;0.00;0.00;;;;;;;;;;5014973;28;20191;-78
2021/12/18 05:53:14;;;;;;;0.00;0.00;;;;;;;;;;5012208;28;20233;-77
2021/12/18 05:55:49;;;;;;;0.00;0.00;;;;;;;;;;5014514;28;20251;-77
2021/12/18 05:58:21;;;;;;;0.00;0.00;;;;;;;;;;5012248;28;20224;-77
2021/12/18 06:00:53;;;;;;;0.00;0.00;;;;;;;;;;5014480;28;20205;-78
2021/12/18 06:03:23;;;;;;;0.00;0.00;;;;;;;;;;5014223;28;20283;-77
2021/12/18 06:05:53;;;;;;;0.00;0.00;;;;;;;;;;5014569;28;20205;-77
2021/12/18 06:08:24;;;;;;;0.00;0.00;;;;;;;;;;5012271;28;20229;-77
2021/12/18 06:10:55;;;;;;;0.00;0.00;;;;;;;;;;5012577;28;20218;-77
2021/12/18 06:13:27;;;;;;;0.00;0.00;;;;;;;;;;5011305;28;20263;-77
2021/12/18 06:15:59;;;;;;;0.00;0.00;;;;;;;;;;5013491;28;20617;-78
2021/12/18 06:18:32;;;;;;;0.00;0.00;;;;;;;;;;5011224;28;20567;-78
2021/12/18 06:21:02;;;;;;;0.00;0.00;;;;;;;;;;5013379;28;20267;-78
2021/12/18 06:23:35;;;;;;;0.00;0.00;;;;;;;;;;5012703;28;20200;-78
2021/12/18 06:26:06;;;;;;;0.00;0.00;;;;;;;;;;5013018;28;20212;-78
2021/12/18 06:28:40;;;;;;;0.00;0.00;;;;;;;;;;5013099;28;20227;-78
2021/12/18 06:31:30;;;;;;;0.00;0.00;;;;;;;;;;5013833;28;20660;-77
2021/12/18 06:34:03;;;;;;;0.00;0.00;;;;;;;;;;5009403;28;20259;-78
2021/12/18 06:36:34;;;;;;;0.00;0.00;;;;;;;;;;4977349;28;20231;-77
2021/12/18 06:39:03;;;;;;;0.30;0.10;;;;;;;;;;5002972;28;20677;-77
2021/12/18 06:41:36;;;;;;;0.47;0.20;;;;;;;;;;5013372;28;20207;-77
2021/12/18 06:44:06;;;;;;;0.20;0.07;;;;;;;;;;5012146;28;20206;-77
2021/12/18 06:46:37;;;;;;;0.67;0.40;;;;;;;;;;5013341;28;20593;-78
2021/12/18 06:49:09;;;;;;;0.67;0.33;;;;;;;;;;5011238;28;20235;-78
2021/12/18 06:51:41;;;;;;;0.83;0.43;;;;;;;;;;5013858;28;20286;-77
2021/12/18 06:54:11;;;;;;;0.40;0.37;;;;;;;;;;5011720;28;20212;-78
2021/12/18 06:56:45;;;;;;;0.63;0.37;;;;;;;;;;5014203;28;20232;-78
2021/12/18 06:59:18;;;;;;;0.53;0.30;;;;;;;;;;5013091;28;20217;-77
2021/12/18 07:01:52;;;;;;;0.63;0.37;;;;;;;;;;5013651;28;20299;-78
2021/12/18 07:04:23;;;;;;;1.03;0.40;;;;;;;;;;4992124;28;20551;-77
2021/12/18 07:06:55;;;;;;;0.27;0.27;;;;;;;;;;4994002;28;20774;-77
2021/12/18 07:09:24;;;;;;;0.73;0.47;;;;;;;;;;4995103;28;20656;-78
2021/12/18 07:11:58;;;;;;;0.63;0.47;;;;;;;;;;5012700;28;20292;-76
2021/12/18 07:14:29;;;;;;;1.10;0.53;;;;;;;;;;5012966;28;20203;-78
2021/12/18 07:17:03;;;;;;;1.00;0.43;;;;;;;;;;5011654;28;20224;-77
2021/12/18 07:19:33;;;;;;;0.67;0.40;;;;;;;;;;5013814;28;20208;-77
2021/12/18 07:22:04;;;;;;;0.40;0.40;;;;;;;;;;5009648;28;20260;-78
2021/12/18 07:24:34;;;;;;;1.20;0.40;;;;;;;;;;4997324;28;20610;-77
2021/12/18 07:27:07;;;;;;;0.83;0.53;;;;;;;;;;5005937;28;20839;-77
2021/12/18 07:29:39;;;;;;;0.53;0.30;;;;;;;;;;5005794;28;20197;-77
2021/12/18 07:32:09;;;;;;;0.87;0.47;;;;;;;;;;5009164;28;20304;-78
2021/12/18 07:34:54;;;;;;;1.60;0.57;;;;;;;;;;5001700;28;20227;-77
2021/12/18 07:37:24;;;;;;;1.20;0.63;;;;;;;;;;5012876;28;20278;-77
2021/12/18 07:39:55;;;;;;;0.67;0.47;;;;;;;;;;5009510;28;20235;-77
2021/12/18 07:42:34;;;;;;;1.00;0.60;;;;;;;;;;5012993;28;20215;-77
2021/12/18 07:45:17;;;;;;;1.60;0.73;;;;;;;;;;5012811;28;20193;-76
2021/12/18 07:47:56;;;;;;;1.17;0.70;;;;;;;;;;5008192;28;20339;-77
2021/12/18 07:50:32;;;;;;;0.97;0.53;;;;;;;;;;5012138;28;20207;-77
2021/12/18 07:53:02;;;;;;;1.80;0.57;;;;;;;;;;5013106;28;20227;-78
2021/12/18 07:55:32;;;;;;;1.33;0.37;;;;;;;;;;5010839;28;20295;-77
2021/12/18 07:58:19;;;;;;;0.83;0.47;;;;;;;;;;5011440;28;20247;-77
2021/12/18 08:00:59;;;;;;;1.10;0.43;;;;;;;;;;5009842;28;20224;-77
2021/12/18 08:03:30;;;;;;;0.60;0.40;;;;;;;;;;5008030;28;20290;-77
2021/12/18 08:06:06;;;;;;;0.47;0.40;;;;;;;;;;4978832;28;20219;-76
2021/12/18 08:08:37;;;;;;;0.63;0.33;;;;;;;;;;5009284;28;20343;-77
2021/12/18 08:11:08;;;;;;;0.97;0.43;;;;;;;;;;5001387;28;20655;-76
2021/12/18 08:13:39;;;;;;;0.83;0.63;;;;;;;;;;5011307;28;20215;-76
2021/12/18 08:16:08;;;;;;;1.60;0.40;;;;;;;;;;5009255;28;20208;-77
2021/12/18 08:18:37;;;;;;;1.33;0.37;;;;;;;;;;5011995;28;20232;-76
2021/12/18 08:21:06;;;;;;;0.90;0.57;;;;;;;;;;5008491;28;20207;-77
2021/12/18 08:23:35;;;;;;;1.50;0.47;;;;;;;;;;5008493;28;20723;-77
2021/12/18 08:26:05;;;;;;;0.47;0.40;;;;;;;;;;5000834;28;20209;-76
2021/12/18 08:28:38;;;;;;;0.97;0.57;;;;;;;;;;5002111;28;20260;-77
2021/12/18 08:31:09;;;;;;;0.60;0.40;;;;;;;;;;5010864;28;20197;-77
2021/12/18 08:33:40;;;;;;;0.97;0.43;;;;;;;;;;5010575;28;20578;-76
2021/12/18 08:36:11;;;;;;;1.80;0.53;;;;;;;;;;5011913;28;20200;-77
2021/12/18 08:38:42;;;;;;;1.23;0.33;;;;;;;;;;4990332;28;20255;-77
2021/12/18 08:41:11;;;;;;;1.60;0.53;;;;;;;;;;5013553;28;20219;-76
2021/12/18 08:43:41;;;;;;;0.60;0.43;;;;;;;;;;5013552;28;20201;-76
2021/12/18 08:46:12;;;;;;;0.90;0.43;;;;;;;;;;5010865;28;20201;-76
2021/12/18 08:48:43;;;;;;;0.73;0.40;;;;;;;;;;5012499;28;20684;-77
2021/12/18 08:51:14;;;;;;;0.77;0.57;;;;;;;;;;5011752;28;20242;-71
2021/12/18 08:53:46;;;;;;;0.83;0.60;;;;;;;;;;5008781;28;20243;-71
2021/12/18 08:56:17;;;;;;;1.03;0.43;;;;;;;;;;5012641;28;20200;-71
2021/12/18 08:58:54;;;;;;;1.10;0.53;;;;;;;;;;5010307;28;20262;-71
2021/12/18 09:01:26;;;;;;;0.63;0.43;;;;;;;;;;5015965;28;20204;-71
2021/12/18 09:03:58;;;;;;;1.17;0.53;;;;;;;;;;5014019;28;20287;-71
2021/12/18 09:06:33;;;;;;;1.90;0.60;;;;;;;;;;5014300;28;20268;-70
2021/12/18 09:09:02;;;;;;;1.00;0.43;;;;;;;;;;5012849;28;20283;-71
2021/12/18 09:11:32;;;;;;;1.20;0.73;;;;;;;;;;5015435;28;20200;-70
2021/12/18 09:14:04;;;;;;;1.40;0.70;;;;;;;;;;5012932;28;20201;-72
2021/12/18 09:16:36;;;;;;;0.97;0.50;;;;;;;;;;5013968;28;20307;-70
2021/12/18 09:19:09;;;;;;;0.93;0.47;;;;;;;;;;5010361;28;20295;-71
2021/12/18 09:21:39;;;;;;;0.47;0.47;;;;;;;;;;5013556;28;20196;-71
2021/12/18 09:24:09;;;;;;;0.67;0.40;;;;;;;;;;5010919;28;20211;-71
2021/12/18 09:26:39;;;;;;;1.23;0.43;;;;;;;;;;5014393;28;20229;-70
2021/12/18 09:29:11;;;;;;;0.53;0.30;;;;;;;;;;5012955;28;20311;-70
2021/12/18 09:31:42;;;;;;;0.47;0.30;;;;;;;;;;5006208;28;20200;-70
2021/12/18 09:34:12;;;;;;;0.67;0.40;;;;;;;;;;5014280;28;20275;-70
2021/12/18 09:36:46;;;;;;;0.50;0.33;;;;;;;;;;5013106;28;20742;-71
2021/12/18 09:39:16;;;;;;;1.07;0.37;;;;;;;;;;5013963;28;20283;-70
2021/12/18 09:41:49;;;;;;;0.53;0.30;;;;;;;;;;5012374;28;20210;-71
2021/12/18 09:44:22;;;;;;;0.93;0.43;;;;;;;;;;5012816;28;20240;-70
2021/12/18 09:46:54;;;;;;;1.33;0.43;;;;;;;;;;5012836;28;20227;-70
2021/12/18 09:49:24;;;;;;;1.23;0.40;;;;;;;;;;5011825;28;20223;-71
2021/12/18 09:51:55;;;;;;;0.87;0.53;;;;;;;;;;5012674;28;20205;-71
2021/12/18 09:54:25;;;;;;;0.77;0.30;;;;;;;;;;5012807;28;20212;-71
2021/12/18 09:56:56;;;;;;;0.60;0.47;;;;;;;;;;4997181;28;20303;-70
2021/12/18 09:59:27;;;;;;;1.13;0.43;;;;;;;;;;5001868;28;20231;-73
2021/12/18 10:02:01;;;;;;;0.53;0.30;;;;;;;;;;5004101;28;20240;-71
2021/12/18 10:04:32;;;;;;;0.20;0.20;;;;;;;;;;4989511;28;20278;-71
2021/12/18 10:07:03;;;;;;;0.63;0.30;;;;;;;;;;5002966;28;20262;-71
2021/12/18 10:09:35;;;;;;;0.63;0.30;;;;;;;;;;5008706;28;20294;-70
2021/12/18 10:12:15;;;;;;;0.30;0.20;;;;;;;;;;5006436;28;20214;-71
2021/12/18 10:14:52;;;;;;;0.57;0.30;;;;;;;;;;5007208;28;20676;-70
2021/12/18 10:17:31;;;;;;;0.53;0.37;;;;;;;;;;5005428;28;20679;-71
2021/12/18 10:20:15;;;;;;;0.57;0.40;;;;;;;;;;5007799;28;20220;-71
2021/12/18 10:22:50;;;;;;;0.67;0.30;;;;;;;;;;4999491;28;20212;-71
2021/12/18 10:25:22;;;;;;;0.67;0.33;;;;;;;;;;5003578;28;20208;-71
2021/12/18 10:27:57;;;;;;;0.83;0.40;;;;;;;;;;5004002;28;20303;-75
2021/12/18 10:30:29;;;;;;;0.97;0.47;;;;;;;;;;5007703;28;20224;-76
2021/12/18 10:33:03;;;;;;;1.20;0.53;;;;;;;;;;5008371;28;20193;-76
2021/12/18 10:35:44;;;;;;;0.63;0.47;;;;;;;;;;5010811;28;20203;-75
2021/12/18 10:38:29;;;;;;;0.63;0.40;;;;;;;;;;5007511;28;20228;-77
2021/12/18 10:40:58;;;;;;;0.93;0.47;;;;;;;;;;5001904;28;20641;-78
2021/12/18 10:43:27;;;;;;;0.37;0.20;;;;;;;;;;5005028;28;20710;-77
2021/12/18 10:46:00;;;;;;;1.07;0.53;;;;;;;;;;5007060;28;20200;-75
2021/12/18 10:48:32;;;;;;;0.63;0.40;;;;;;;;;;5002115;28;20578;-77
2021/12/18 10:51:01;;;;;;;0.63;0.37;;;;;;;;;;4996672;28;20221;-72
2021/12/18 10:53:30;;;;;;;1.50;0.73;;;;;;;;;;5009189;28;20217;-71
2021/12/18 10:56:00;;;;;;;1.07;0.67;;;;;;;;;;5006765;28;20213;-71
2021/12/18 10:58:35;;;;;;;0.63;0.30;;;;;;;;;;5001092;28;20306;-72
2021/12/18 11:01:05;;;;;;;1.33;0.53;;;;;;;;;;4999670;28;20212;-72
2021/12/18 11:03:37;;;;;;;0.93;0.43;;;;;;;;;;4997346;28;20197;-72
2021/12/18 11:06:08;;;;;;;0.47;0.40;;;;;;;;;;5007323;28;20211;-75
2021/12/18 11:08:53;;;;;;;0.83;0.43;;;;;;;;;;5008161;28;20270;-72
2021/12/18 11:14:09;;;;;;;0.77;0.33;;;;;;;;;;5011290;28;20204;-73
2021/12/18 11:16:39;;;;;;;1.10;0.30;;;;;;;;;;5007695;28;20228;-75
2021/12/18 11:19:11;;;;;;;1.03;0.57;;;;;;;;;;5003163;28;20218;-76
2021/12/18 11:21:42;;;;;;;0.63;0.50;;;;;;;;;;5009560;28;20204;-73
2021/12/18 11:24:11;;;;;;;0.83;0.47;;;;;;;;;;5008260;28;20255;-76
2021/12/18 11:26:42;;;;;;;0.70;0.43;;;;;;;;;;5009443;28;20270;-72
2021/12/18 11:29:13;;;;;;;0.63;0.57;;;;;;;;;;5012255;28;20227;-72
2021/12/18 11:31:42;;;;;;;0.43;0.30;;;;;;;;;;5012090;28;20246;-72
2021/12/18 11:34:14;;;;;;;0.83;0.40;;;;;;;;;;5013421;28;20253;-76
2021/12/18 11:36:44;;;;;;;0.33;0.30;;;;;;;;;;5012994;28;20326;-73
2021/12/18 11:39:13;;;;;;;0.40;0.33;;;;;;;;;;5013776;28;20629;-73
2021/12/18 11:41:49;;;;;;;0.77;0.37;;;;;;;;;;5004011;28;20208;-72
2021/12/18 11:44:28;;;;;;;1.50;0.57;;;;;;;;;;4999286;28;20209;-76
2021/12/18 11:46:57;;;;;;;0.93;0.47;;;;;;;;;;5000904;28;20655;-74
2021/12/18 11:49:42;;;;;;;0.93;0.47;;;;;;;;;;5008875;28;20264;-74
2021/12/18 11:52:11;;;;;;;0.53;0.43;;;;;;;;;;5003141;28;20208;-75
2021/12/18 11:54:42;;;;;;;0.60;0.40;;;;;;;;;;5009352;28;20236;-75
2021/12/18 11:57:11;;;;;;;0.67;0.40;;;;;;;;;;5001470;28;20275;-74
2021/12/18 11:59:41;;;;;;;0.40;0.40;;;;;;;;;;5011971;28;20562;-74
2021/12/18 12:02:11;;;;;;;0.50;0.30;;;;;;;;;;5012775;28;20258;-75
2021/12/18 12:05:00;;;;;;;0.20;0.20;;;;;;;;;;5012098;28;20667;-74
2021/12/18 12:07:29;;;;;;;0.20;0.20;;;;;;;;;;5002405;28;20231;-76
2021/12/18 12:10:24;;;;;;;0.50;0.30;;;;;;;;;;5010719;28;20246;-74
2021/12/18 12:12:54;;;;;;;0.83;0.30;;;;;;;;;;5008382;28;20616;-74
2021/12/18 12:15:25;;;;;;;0.43;0.30;;;;;;;;;;5006340;28;20204;-71
2021/12/18 12:17:56;;;;;;;0.53;0.20;;;;;;;;;;5004136;28;20228;-71
2021/12/18 12:20:46;;;;;;;0.20;0.17;;;;;;;;;;5011861;28;20608;-72
2021/12/18 12:23:20;;;;;;;0.20;0.20;;;;;;;;;;5013726;28;20211;-71
2021/12/18 12:25:51;;;;;;;0.33;0.20;;;;;;;;;;5013878;28;20216;-72
2021/12/18 12:28:22;;;;;;;0.40;0.27;;;;;;;;;;5012772;28;20326;-71
2021/12/18 12:30:54;;;;;;;0.37;0.20;;;;;;;;;;5006661;28;20230;-71
2021/12/18 12:33:28;;;;;;;0.07;0.07;;;;;;;;;;5008689;28;20562;-76
2021/12/18 12:36:02;;;;;;;0.10;0.10;;;;;;;;;;5009685;28;20216;-76
2021/12/18 12:38:34;;;;;;;0.10;0.10;;;;;;;;;;5012372;28;20204;-77
2021/12/18 12:41:22;;;;;;;0.27;0.17;;;;;;;;;;5015217;28;20236;-76
2021/12/18 12:43:56;;;;;;;0.00;0.00;;;;;;;;;;5013482;28;20227;-77
2021/12/18 12:46:29;;;;;;;0.00;0.00;;;;;;;;;;4999105;28;20290;-76
2021/12/18 12:49:00;;;;;;;0.00;0.00;;;;;;;;;;5015778;28;20216;-76
2021/12/18 12:51:45;;;;;;;0.00;0.00;;;;;;;;;;5015804;28;20310;-76
2021/12/18 12:54:42;;;;;;;0.00;0.00;;;;;;;;;;5013495;28;20208;-76
2021/12/18 12:57:33;;;;;;;0.00;0.00;;;;;;;;;;5015546;28;20225;-76
2021/12/18 13:00:26;;;;;;;0.00;0.00;;;;;;;;;;5013803;28;20211;-75
2021/12/18 13:02:59;;;;;;;0.00;0.00;;;;;;;;;;5015897;28;20239;-76
2021/12/18 13:05:44;;;;;;;0.00;0.00;;;;;;;;;;5015666;28;20668;-77
2021/12/18 13:08:14;;;;;;;0.00;0.00;;;;;;;;;;5001326;28;20251;-77
2021/12/18 13:10:47;;;;;;;0.00;0.00;;;;;;;;;;4995585;28;20252;-77
2021/12/18 13:13:19;;;;;;;0.00;0.00;;;;;;;;;;5011332;28;20614;-77
2021/12/18 13:15:53;;;;;;;0.00;0.00;;;;;;;;;;5014798;28;20224;-77
2021/12/18 13:18:24;;;;;;;0.00;0.00;;;;;;;;;;5015496;28;20301;-76
2021/12/18 13:20:55;;;;;;;0.00;0.00;;;;;;;;;;5015046;28;20224;-77
2021/12/18 13:23:38;;;;;;;0.00;0.00;;;;;;;;;;5005874;28;20699;-76
2021/12/18 13:26:13;;;;;;;0.00;0.00;;;;;;;;;;4994869;28;20205;-76
2021/12/18 13:28:53;;;;;;;0.00;0.00;;;;;;;;;;5003849;28;20656;-75
2021/12/18 13:31:26;;;;;;;0.00;0.00;;;;;;;;;;5014043;28;20294;-77
2021/12/18 13:34:00;;;;;;;0.00;0.00;;;;;;;;;;5014876;28;20205;-77
2021/12/18 13:36:41;;;;;;;0.00;0.00;;;;;;;;;;4998324;28;20228;-77
2021/12/18 13:39:14;;;;;;;0.00;0.00;;;;;;;;;;5014874;28;20204;-76
2021/12/18 13:42:02;;;;;;;0.00;0.00;;;;;;;;;;4996877;28;20213;-76
2021/12/18 13:44:47;;;;;;;0.00;0.00;;;;;;;;;;5013230;28;20735;-77
2021/12/18 13:47:47;;;;;;;0.00;0.00;;;;;;;;;;4648395;28;10000562;-76
2021/12/18 13:50:18;;;;;;;0.00;0.00;;;;;;;;;;5010367;28;20236;-76
2021/12/18 13:52:51;;;;;;;0.00;0.00;;;;;;;;;;4997018;28;20224;-77
2021/12/18 13:55:30;;;;;;;0.00;0.00;;;;;;;;;;4989726;28;20216;-76
2021/12/18 13:58:10;;;;;;;0.00;0.00;;;;;;;;;;5000881;28;20311;-76
2021/12/18 14:01:00;;;;;;;0.00;0.00;;;;;;;;;;4994127;28;20278;-76
2021/12/18 14:03:35;;;;;;;0.00;0.00;;;;;;;;;;5009964;28;20265;-76
2021/12/18 14:06:08;;;;;;;0.00;0.00;;;;;;;;;;4993927;28;20292;-76
2021/12/18 14:08:40;;;;;;;0.00;0.00;;;;;;;;;;5011143;28;20219;-77
2021/12/18 14:11:10;;;;;;;0.00;0.00;;;;;;;;;;5006335;28;20271;-77
2021/12/18 14:13:50;;;;;;;0.00;0.00;;;;;;;;;;5002450;28;20205;-76
2021/12/18 14:16:22;;;;;;;0.00;0.00;;;;;;;;;;5007973;28;20239;-77
2021/12/18 14:18:59;;;;;;;0.00;0.00;;;;;;;;;;5009708;28;20236;-76
2021/12/18 14:21:37;;;;;;;0.00;0.00;;;;;;;;;;5011210;28;20198;-77
2021/12/18 14:24:08;;;;;;;0.00;0.00;;;;;;;;;;5011185;28;20609;-76
2021/12/18 14:26:39;;;;;;;0.00;0.00;;;;;;;;;;5009758;28;20579;-76
2021/12/18 14:29:16;;;;;;;0.00;0.00;;;;;;;;;;5011296;28;20219;-76
2021/12/18 14:31:48;;;;;;;0.00;0.00;;;;;;;;;;5011137;28;20303;-77
2021/12/18 14:34:26;;;;;;;0.00;0.00;;;;;;;;;;5010755;28;20649;-77
2021/12/18 14:36:59;;;;;;;0.00;0.00;;;;;;;;;;5010732;28;20311;-77
2021/12/18 14:39:33;;;;;;;0.00;0.00;;;;;;;;;;5011452;28;20651;-77
2021/12/18 14:42:04;;;;;;;0.00;0.00;;;;;;;;;;5011001;28;20553;-77
2021/12/18 14:44:35;;;;;;;0.00;0.00;;;;;;;;;;4993050;28;20211;-78
2021/12/18 14:47:10;;;;;;;0.00;0.00;;;;;;;;;;5000012;28;20232;-78
2021/12/18 14:49:54;;;;;;;0.00;0.00;;;;;;;;;;4995425;28;20569;-77
2021/12/18 14:52:24;;;;;;;0.00;0.00;;;;;;;;;;5003075;28;20630;-78
2021/12/18 14:54:54;;;;;;;0.00;0.00;;;;;;;;;;5011242;28;20284;-78
2021/12/18 14:57:26;;;;;;;0.00;0.00;;;;;;;;;;5005431;28;20279;-78
2021/12/18 15:00:14;;;;;;;0.00;0.00;;;;;;;;;;5004026;28;20208;-77
2021/12/18 15:02:58;;;;;;;0.00;0.00;;;;;;;;;;5012946;28;20710;-78
2021/12/18 15:05:28;;;;;;;0.00;0.00;;;;;;;;;;5005220;28;20197;-77
2021/12/18 15:07:59;;;;;;;0.00;0.00;;;;;;;;;;5012253;28;20264;-78
2021/12/18 15:10:29;;;;;;;0.00;0.00;;;;;;;;;;5012045;28;20637;-78
2021/12/18 15:13:14;;;;;;;0.00;0.00;;;;;;;;;;5009419;28;20561;-77
2021/12/18 15:15:44;;;;;;;0.00;0.00;;;;;;;;;;4986049;28;20196;-78
2021/12/18 15:18:16;;;;;;;0.00;0.00;;;;;;;;;;4996015;28;20228;-77
2021/12/18 15:20:54;;;;;;;0.00;0.00;;;;;;;;;;5008812;28;20254;-77
2021/12/18 15:23:24;;;;;;;0.00;0.00;;;;;;;;;;4994353;28;20250;-78
2021/12/18 15:25:56;;;;;;;0.00;0.00;;;;;;;;;;5006486;28;20302;-78
2021/12/18 15:28:26;;;;;;;0.00;0.00;;;;;;;;;;5008694;28;20228;-78
2021/12/18 15:30:56;;;;;;;0.00;0.00;;;;;;;;;;5010961;28;20615;-77
2021/12/18 15:33:28;;;;;;;0.00;0.00;;;;;;;;;;5010012;28;20225;-78
2021/12/18 15:36:01;;;;;;;0.00;0.00;;;;;;;;;;5005583;28;20201;-77
2021/12/18 15:38:30;;;;;;;0.00;0.00;;;;;;;;;;5012639;28;20228;-77
2021/12/18 15:41:23;;;;;;;0.00;0.00;;;;;;;;;;5013254;28;20211;-77
2021/12/18 15:43:53;;;;;;;0.00;0.00;;;;;;;;;;5010071;28;20197;-76
2021/12/18 15:46:25;;;;;;;0.10;0.10;;;;;;;;;;5008503;28;20240;-77
2021/12/18 15:48:59;;;;;;;0.00;0.00;;;;;;;;;;5009577;28;20200;-76
2021/12/18 15:51:29;;;;;;;0.00;0.00;;;;;;;;;;5011196;28;20204;-78
2021/12/18 15:54:00;;;;;;;0.10;0.10;;;;;;;;;;5003006;28;20205;-77
2021/12/18 15:56:32;;;;;;;0.00;0.00;;;;;;;;;;5012927;28;20223;-77
2021/12/18 15:59:02;;;;;;;0.00;0.00;;;;;;;;;;5010850;28;20204;-78
2021/12/18 16:01:33;;;;;;;0.00;0.00;;;;;;;;;;5011215;28;20197;-77